LPA3412 LTAC-UGTB
Flight info
| Callsign | LPA3412 |
|---|---|
| Flight time | N/A |
| Altitude | 35000 |
| Route | GOBIT UL614 JUPNE UT54 SIV DCT GONPU UN61 NOLGA N61 LAGAS |
| Aircraft | A320/M-SDE3FGHIRWY/LB1 |
Departure
| Time | N/A |
|---|---|
| Airport | Esenboğa International Airport (LTAC) |
Arrival
| Time | 2026-04-29 17:34 |
|---|---|
| Airport | Tbilisi International Airport (UGTB) |
| Time | Latitude | Longitude | Altitude | Speed | Heading |
|---|---|---|---|---|---|
| 2026-04-29 17:06 | 41.21217 | 41.63611 | 35164 ft | 485 kts | 72° |
| 2026-04-29 17:06 | 41.23472 | 41.72080 | 35168 ft | 486 kts | 71° |
| 2026-04-29 17:07 | 41.25829 | 41.80516 | 35172 ft | 488 kts | 70° |
| 2026-04-29 17:07 | 41.28167 | 41.88991 | 35177 ft | 488 kts | 71° |
| 2026-04-29 17:08 | 41.30250 | 41.97572 | 35179 ft | 487 kts | 80° |
| 2026-04-29 17:08 | 41.30826 | 42.02003 | 35077 ft | 486 kts | 82° |
| 2026-04-29 17:08 | 41.31366 | 42.06436 | 34889 ft | 485 kts | 82° |
| 2026-04-29 17:09 | 41.32497 | 42.15212 | 35221 ft | 482 kts | 82° |
| 2026-04-29 17:09 | 41.33082 | 42.19622 | 35025 ft | 485 kts | 82° |
| 2026-04-29 17:09 | 41.33662 | 42.24045 | 34867 ft | 485 kts | 82° |
| 2026-04-29 17:10 | 41.34234 | 42.28465 | 35047 ft | 484 kts | 82° |
| 2026-04-29 17:10 | 41.34798 | 42.32892 | 35154 ft | 485 kts | 82° |
| 2026-04-29 17:10 | 41.35906 | 42.41757 | 35164 ft | 486 kts | 82° |
| 2026-04-29 17:11 | 41.37012 | 42.50636 | 35164 ft | 486 kts | 82° |
| 2026-04-29 17:11 | 41.38113 | 42.59505 | 35139 ft | 486 kts | 83° |
| 2026-04-29 17:12 | 41.39210 | 42.68377 | 35139 ft | 485 kts | 83° |
| 2026-04-29 17:12 | 41.40120 | 42.75753 | 35140 ft | 485 kts | 83° |
| 2026-04-29 17:13 | 41.41387 | 42.86130 | 35137 ft | 486 kts | 83° |
| 2026-04-29 17:13 | 41.42463 | 42.95023 | 35145 ft | 486 kts | 83° |
| 2026-04-29 17:14 | 41.43528 | 43.03913 | 35147 ft | 486 kts | 83° |
| 2026-04-29 17:14 | 41.44598 | 43.12812 | 35149 ft | 486 kts | 83° |
| 2026-04-29 17:15 | 41.45660 | 43.21716 | 35138 ft | 486 kts | 83° |
| 2026-04-29 17:15 | 41.46710 | 43.30612 | 35132 ft | 486 kts | 83° |
| 2026-04-29 17:16 | 41.47753 | 43.39509 | 35127 ft | 486 kts | 83° |
| 2026-04-29 17:16 | 41.48786 | 43.48356 | 34074 ft | 485 kts | 83° |
| 2026-04-29 17:17 | 41.49301 | 43.52786 | 32969 ft | 480 kts | 83° |
| 2026-04-29 17:17 | 41.49803 | 43.57147 | 31963 ft | 473 kts | 83° |
| 2026-04-29 17:17 | 41.50296 | 43.61462 | 30928 ft | 467 kts | 83° |
| 2026-04-29 17:17 | 41.50779 | 43.65719 | 29907 ft | 464 kts | 83° |
| 2026-04-29 17:18 | 41.51264 | 43.70018 | 28718 ft | 470 kts | 83° |
| 2026-04-29 17:18 | 41.51755 | 43.74317 | 27593 ft | 468 kts | 83° |
| 2026-04-29 17:18 | 41.52248 | 43.78639 | 26365 ft | 476 kts | 83° |
| 2026-04-29 17:18 | 41.52747 | 43.83039 | 25091 ft | 483 kts | 82° |
| 2026-04-29 17:19 | 41.54219 | 43.96140 | 21820 ft | 483 kts | 82° |
| 2026-04-29 17:19 | 41.54713 | 44.00547 | 20907 ft | 474 kts | 82° |
| 2026-04-29 17:20 | 41.55190 | 44.04833 | 20050 ft | 463 kts | 82° |
| 2026-04-29 17:20 | 41.55659 | 44.09080 | 19180 ft | 461 kts | 82° |
| 2026-04-29 17:20 | 41.56124 | 44.13300 | 18341 ft | 459 kts | 82° |
| 2026-04-29 17:20 | 41.56584 | 44.17489 | 17514 ft | 449 kts | 82° |
| 2026-04-29 17:21 | 41.56932 | 44.21538 | 16757 ft | 430 kts | 88° |
| 2026-04-29 17:21 | 41.56843 | 44.25517 | 16043 ft | 428 kts | 96° |
| 2026-04-29 17:21 | 41.56375 | 44.29432 | 15343 ft | 426 kts | 100° |
| 2026-04-29 17:21 | 41.55869 | 44.33281 | 14663 ft | 414 kts | 100° |
| 2026-04-29 17:22 | 41.55377 | 44.37044 | 14037 ft | 410 kts | 100° |
| 2026-04-29 17:22 | 41.54885 | 44.40789 | 13393 ft | 408 kts | 99° |
| 2026-04-29 17:22 | 41.54403 | 44.44441 | 12786 ft | 402 kts | 99° |
| 2026-04-29 17:22 | 41.53921 | 44.48107 | 12099 ft | 400 kts | 99° |
| 2026-04-29 17:23 | 41.53443 | 44.51747 | 11484 ft | 396 kts | 99° |
| 2026-04-29 17:23 | 41.52981 | 44.55270 | 11261 ft | 370 kts | 99° |
| 2026-04-29 17:23 | 41.52554 | 44.58512 | 11117 ft | 341 kts | 99° |
| 2026-04-29 17:23 | 41.52155 | 44.61511 | 10955 ft | 317 kts | 99° |
| 2026-04-29 17:24 | 41.51779 | 44.64341 | 10552 ft | 305 kts | 99° |
| 2026-04-29 17:24 | 41.51408 | 44.67128 | 10310 ft | 303 kts | 100° |
| 2026-04-29 17:24 | 41.51043 | 44.69879 | 10063 ft | 300 kts | 100° |
| 2026-04-29 17:24 | 41.50680 | 44.72601 | 9885 ft | 297 kts | 100° |
| 2026-04-29 17:25 | 41.50317 | 44.75317 | 9760 ft | 298 kts | 100° |
| 2026-04-29 17:25 | 41.49952 | 44.78035 | 9640 ft | 298 kts | 100° |
| 2026-04-29 17:25 | 41.49587 | 44.80751 | 9511 ft | 296 kts | 100° |
| 2026-04-29 17:25 | 41.49223 | 44.83442 | 9393 ft | 295 kts | 100° |
| 2026-04-29 17:26 | 41.48860 | 44.86130 | 9265 ft | 294 kts | 100° |
| 2026-04-29 17:26 | 41.48497 | 44.88813 | 8981 ft | 293 kts | 100° |
| 2026-04-29 17:26 | 41.48135 | 44.91470 | 8486 ft | 290 kts | 100° |
| 2026-04-29 17:26 | 41.47774 | 44.94104 | 7978 ft | 289 kts | 100° |
| 2026-04-29 17:27 | 41.47413 | 44.96731 | 7454 ft | 285 kts | 100° |
| 2026-04-29 17:27 | 41.47060 | 44.99310 | 6977 ft | 278 kts | 100° |
| 2026-04-29 17:27 | 41.46727 | 45.01749 | 6791 ft | 258 kts | 100° |
| 2026-04-29 17:27 | 41.46548 | 45.04023 | 6603 ft | 245 kts | 86° |
| 2026-04-29 17:28 | 41.46883 | 45.06240 | 6463 ft | 244 kts | 68° |
| 2026-04-29 17:28 | 41.47728 | 45.08201 | 6130 ft | 246 kts | 49° |
| 2026-04-29 17:28 | 41.48895 | 45.09847 | 5596 ft | 243 kts | 45° |
| 2026-04-29 17:28 | 41.50058 | 45.11455 | 5228 ft | 234 kts | 44° |
| 2026-04-29 17:29 | 41.51361 | 45.12521 | 5166 ft | 212 kts | 12° |
| 2026-04-29 17:29 | 41.52736 | 45.12491 | 5133 ft | 189 kts | 342° |
| 2026-04-29 17:29 | 41.53828 | 45.11601 | 4772 ft | 185 kts | 316° |
| 2026-04-29 17:29 | 41.54449 | 45.10817 | 4579 ft | 178 kts | 316° |
| 2026-04-29 17:30 | 41.55584 | 45.09383 | 4267 ft | 164 kts | 316° |
| 2026-04-29 17:30 | 41.56379 | 45.08383 | 4055 ft | 152 kts | 316° |
| 2026-04-29 17:30 | 41.57138 | 45.07429 | 3848 ft | 148 kts | 316° |
| 2026-04-29 17:30 | 41.57884 | 45.06489 | 3661 ft | 147 kts | 316° |
| 2026-04-29 17:31 | 41.58628 | 45.05553 | 3466 ft | 147 kts | 316° |
| 2026-04-29 17:31 | 41.59368 | 45.04622 | 3270 ft | 146 kts | 316° |
| 2026-04-29 17:31 | 41.60109 | 45.03691 | 3077 ft | 146 kts | 316° |
| 2026-04-29 17:31 | 41.60846 | 45.02761 | 2883 ft | 145 kts | 316° |
| 2026-04-29 17:32 | 41.61569 | 45.01851 | 2703 ft | 138 kts | 316° |
| 2026-04-29 17:32 | 41.62252 | 45.00991 | 2518 ft | 133 kts | 317° |
| 2026-04-29 17:32 | 41.62928 | 45.00146 | 2339 ft | 132 kts | 318° |
| 2026-04-29 17:32 | 41.63596 | 44.99304 | 2132 ft | 132 kts | 317° |
| 2026-04-29 17:33 | 41.64261 | 44.98466 | 1944 ft | 130 kts | 317° |
| 2026-04-29 17:33 | 41.64923 | 44.97635 | 1804 ft | 131 kts | 318° |
| 2026-04-29 17:33 | 41.65577 | 44.96799 | 1620 ft | 130 kts | 316° |
| 2026-04-29 17:33 | 41.66218 | 44.95986 | 1523 ft | 112 kts | 316° |
| 2026-04-29 17:34 | 41.66564 | 44.95552 | 1525 ft | 24 kts | 317° |
| 2026-04-29 17:34 | 41.66687 | 44.95398 | 1525 ft | 24 kts | 317° |
| 2026-04-29 17:34 | 41.66808 | 44.95246 | 1523 ft | 23 kts | 316° |
| 2026-04-29 17:34 | 41.66893 | 44.95194 | 1523 ft | 13 kts | 24° |
| 2026-04-29 17:35 | 41.66986 | 44.95308 | 1521 ft | 14 kts | 44° |
| 2026-04-29 17:35 | 41.67115 | 44.95472 | 1526 ft | 17 kts | 44° |
| 2026-04-29 17:35 | 41.67201 | 44.95582 | 1521 ft | 16 kts | 43° |
| 2026-04-29 17:36 | 41.67231 | 44.95666 | 1520 ft | 10 kts | 113° |
| 2026-04-29 17:36 | 41.67188 | 44.95732 | 1525 ft | 9 kts | 133° |
| 2026-04-29 17:36 | 41.67129 | 44.95812 | 1523 ft | 13 kts | 133° |
| 2026-04-29 17:36 | 41.67075 | 44.95895 | 1522 ft | 9 kts | 122° |
| 2026-04-29 17:37 | 41.67043 | 44.95964 | 1521 ft | 8 kts | 131° |
| 2026-04-29 17:37 | 41.67018 | 44.96021 | 1519 ft | 6 kts | 95° |
| 2026-04-29 17:37 | 41.67037 | 44.96065 | 1526 ft | 5 kts | 45° |
| 2026-04-29 17:37 | 41.67059 | 44.96091 | 1523 ft | 4 kts | 43° |
| 2026-04-29 17:38 | 41.67063 | 44.96096 | 1526 ft | 0 kts | 43° |